Time;durP1;ratioP1;P1;durP2;ratioP2;P2;SDS_P1;SDS_P2;PMS_P1;PMS_P2;Temp;Humidity;BMP_temperature;BMP_pressure;BME280_temperature;BME280_humidity;BME280_pressure;Samples;Min_cycle;Max_cycle;Signal;HPM_P1;HPM_P2
2022/12/04 00:00:28;;;;;;;15.10;7.70;;;;;;;3.94;100.00;99663.81;12219216;19;20002;-83
2022/12/04 00:04:32;;;;;;;13.45;7.38;;;;;;;3.91;100.00;99658.78;12219784;19;20038;-83
2022/12/04 00:08:34;;;;;;;16.40;7.47;;;;;;;3.89;100.00;99671.75;12193205;19;20098;-83
2022/12/04 00:12:36;;;;;;;15.68;8.13;;;;;;;3.91;100.00;99664.22;12209543;19;20010;-83
2022/12/04 00:16:37;;;;;;;14.70;7.50;;;;;;;3.96;100.00;99656.25;12203059;19;20125;-84
2022/12/04 00:20:39;;;;;;;15.85;8.10;;;;;;;3.95;100.00;99661.91;12181557;19;20015;-85
2022/12/04 00:24:41;;;;;;;16.00;7.93;;;;;;;3.94;100.00;99663.81;12213373;19;20023;-85
2022/12/04 00:28:43;;;;;;;17.90;8.60;;;;;;;3.94;100.00;99673.88;12229713;19;19995;-84
2022/12/04 00:32:45;;;;;;;12.87;7.43;;;;;;;3.95;100.00;99668.19;12255888;19;20023;-85
2022/12/04 00:36:46;;;;;;;14.27;7.20;;;;;;;3.91;100.00;99668.84;12211427;19;20006;-85
2022/12/04 00:40:49;;;;;;;13.80;7.65;;;;;;;3.93;100.00;99664.84;12176906;19;20011;-85
2022/12/04 00:44:51;;;;;;;;;;;;;;;3.93;100.00;99664.84;12200494;19;20754;-85
2022/12/04 00:48:53;;;;;;;12.68;6.43;;;;;;;3.94;100.00;99674.72;12198157;19;19935;-85
2022/12/04 00:52:56;;;;;;;14.18;6.90;;;;;;;3.95;100.00;99653.72;12172816;19;20047;-85
2022/12/04 00:56:58;;;;;;;14.18;6.97;;;;;;;3.90;100.00;99646.19;12196475;19;20752;-85
2022/12/04 01:01:06;;;;;;;13.82;7.25;;;;;;;3.94;100.00;99646.59;12196792;19;20002;-85
2022/12/04 01:05:08;;;;;;;16.40;7.53;;;;;;;3.98;100.00;99650.59;12179293;19;20460;-85
2022/12/04 01:09:09;;;;;;;16.05;7.63;;;;;;;3.93;100.00;99651.22;12194933;19;20043;-85
2022/12/04 01:13:11;;;;;;;15.57;8.13;;;;;;;3.91;100.00;99656.03;12192304;19;20608;-85
2022/12/04 01:17:13;;;;;;;15.10;7.50;;;;;;;3.94;100.00;99647.44;12176260;19;20002;-85
2022/12/04 01:21:15;;;;;;;15.40;7.57;;;;;;;3.93;100.00;99645.78;12191466;19;20413;-84
2022/12/04 01:25:17;;;;;;;12.88;7.05;;;;;;;3.91;100.00;99645.13;12174033;19;20003;-85
2022/12/04 01:29:18;;;;;;;13.05;7.10;;;;;;;3.86;100.00;99640.31;12174535;19;20007;-84
2022/12/04 01:33:20;;;;;;;14.38;7.60;;;;;;;3.77;100.00;99627.09;12205285;19;20615;-85
2022/12/04 01:37:22;;;;;;;18.38;9.13;;;;;;;3.75;100.00;99619.16;12228879;19;20335;-84
2022/12/04 01:41:27;;;;;;;17.50;8.57;;;;;;;3.70;100.00;99629.84;12232709;19;20014;-84
2022/12/04 01:45:42;;;;;;;14.68;7.60;;;;;;;3.68;100.00;99612.03;12208863;19;20027;-84
2022/12/04 01:49:46;;;;;;;15.35;7.32;;;;;;;3.65;100.00;99633.19;12178012;19;20007;-85
2022/12/04 01:53:53;;;;;;;15.50;8.15;;;;;;;3.63;100.00;99659.81;12197702;19;20002;-84
2022/12/04 01:57:55;;;;;;;17.15;8.32;;;;;;;3.57;100.00;99651.63;12198110;19;20010;-84
2022/12/04 02:02:05;;;;;;;16.67;8.67;;;;;;;3.58;100.00;99651.41;12175573;19;20072;-84
2022/12/04 02:06:07;;;;;;;15.43;7.68;;;;;;;3.61;100.00;99642.84;12196915;19;20007;-83
2022/12/04 02:10:10;;;;;;;14.32;7.65;;;;;;;3.59;100.00;99639.47;12190477;19;20027;-85
2022/12/04 02:14:30;;;;;;;15.40;7.90;;;;;;;3.60;100.00;99641.16;12173370;19;20362;-84
2022/12/04 02:18:52;;;;;;;16.25;8.75;;;;;;;3.57;100.00;99636.13;12195524;19;20361;-85
2022/12/04 02:23:18;;;;;;;14.23;7.45;;;;;;;3.52;100.00;99648.69;12174834;19;20010;-85
2022/12/04 02:27:35;;;;;;;17.70;8.55;;;;;;;3.56;100.00;99648.06;12194911;19;20018;-85
2022/12/04 02:32:03;;;;;;;15.57;8.27;;;;;;;3.60;100.00;99640.34;12194736;19;20031;-85
2022/12/04 02:36:12;;;;;;;15.13;8.70;;;;;;;3.61;100.00;99647.44;12173985;19;20007;-83
2022/12/04 02:40:27;;;;;;;14.40;7.88;;;;;;;3.66;100.00;99653.13;12192271;19;20710;-84
2022/12/04 02:44:37;;;;;;;15.77;8.32;;;;;;;3.68;100.00;99644.72;12172631;19;20080;-83
2022/12/04 02:48:43;;;;;;;14.23;7.80;;;;;;;3.66;100.00;99644.94;12196061;19;19999;-84
2022/12/04 02:52:49;;;;;;;18.42;8.30;;;;;;;3.64;100.00;99647.03;12168817;19;20032;-83
2022/12/04 02:56:54;;;;;;;17.25;8.23;;;;;;;3.71;100.00;99649.75;12202576;19;20451;-84
2022/12/04 03:01:00;;;;;;;17.45;8.27;;;;;;;3.75;100.00;99648.28;12200529;19;20028;-84
2022/12/04 03:05:07;;;;;;;17.65;8.45;;;;;;;3.80;100.00;99649.31;12184785;19;20021;-83
2022/12/04 03:09:14;;;;;;;18.00;7.97;;;;;;;3.81;100.00;99640.13;12204472;19;20014;-83
2022/12/04 03:13:23;;;;;;;14.63;7.53;;;;;;;3.78;100.00;99650.59;12203047;19;20015;-83
2022/12/04 03:17:31;;;;;;;15.70;8.13;;;;;;;3.82;100.00;99643.69;12183366;19;20007;-83
2022/12/04 03:21:37;;;;;;;16.98;7.82;;;;;;;3.80;100.00;99632.97;12202089;19;20038;-84
2022/12/04 03:25:49;;;;;;;18.58;9.07;;;;;;;3.76;100.00;99637.19;12201961;19;20014;-83
2022/12/04 03:30:05;;;;;;;16.03;8.27;;;;;;;3.74;100.00;99631.09;12183155;19;20006;-84
2022/12/04 03:34:10;;;;;;;15.88;8.13;;;;;;;3.74;100.00;99622.06;12203547;19;20090;-84
2022/12/04 03:38:28;;;;;;;16.35;8.55;;;;;;;3.77;100.00;99618.94;12182602;19;20010;-83
2022/12/04 03:42:41;;;;;;;14.38;7.68;;;;;;;3.80;100.00;99621.22;12203336;19;20016;-84
2022/12/04 03:47:09;;;;;;;17.70;8.15;;;;;;;3.81;100.00;99617.47;12181561;19;20026;-84
2022/12/04 03:51:35;;;;;;;14.77;7.72;;;;;;;3.82;100.00;99606.34;12202127;19;20498;-84
2022/12/04 03:55:53;;;;;;;16.25;7.85;;;;;;;3.76;100.00;99609.91;12203580;19;20003;-84
2022/12/04 04:00:07;;;;;;;15.55;8.02;;;;;;;3.70;100.00;99596.31;12181259;19;20472;-83
2022/12/04 04:04:14;;;;;;;15.65;8.00;;;;;;;3.71;100.00;99604.25;12200027;19;20010;-84
2022/12/04 04:08:28;;;;;;;15.50;7.85;;;;;;;3.66;100.00;99601.34;12177549;19;20010;-83
2022/12/04 04:12:36;;;;;;;14.57;7.22;;;;;;;3.70;100.00;99590.84;12189544;19;20011;-83
2022/12/04 04:25:25;;;;;;;14.20;7.28;;;;;;;3.75;100.00;99591.03;12201185;19;20035;-84
2022/12/04 04:29:27;;;;;;;18.35;7.43;;;;;;;3.70;100.00;99593.59;12180673;19;20006;-85
2022/12/04 04:33:31;;;;;;;16.75;7.85;;;;;;;3.74;100.00;99603.00;12199386;19;20003;-84
2022/12/04 04:37:45;;;;;;;16.52;8.10;;;;;;;3.78;100.00;99604.28;12201377;19;20003;-84
2022/12/04 04:41:55;;;;;;;17.88;7.43;;;;;;;3.78;100.00;99599.66;12177768;19;20006;-84
2022/12/04 04:46:09;;;;;;;15.70;7.13;;;;;;;3.77;100.00;99600.69;12201620;19;20011;-84
2022/12/04 04:50:12;;;;;;;16.38;7.45;;;;;;;3.82;100.00;99595.44;12175145;19;20357;-84
2022/12/04 04:54:16;;;;;;;16.10;7.30;;;;;;;3.84;100.00;99597.97;12197126;19;20032;-84
2022/12/04 04:58:19;;;;;;;16.48;7.22;;;;;;;3.80;100.00;99585.81;12197318;19;20032;-84
2022/12/04 05:02:23;;;;;;;15.18;8.13;;;;;;;3.78;100.00;99583.31;12175880;19;20098;-84
2022/12/04 05:06:25;;;;;;;17.42;7.47;;;;;;;3.77;100.00;99587.06;12199252;19;20010;-84
2022/12/04 05:10:26;;;;;;;15.25;7.22;;;;;;;3.77;100.00;99586.22;12196449;19;20006;-84
2022/12/04 05:14:28;;;;;;;16.23;8.15;;;;;;;3.77;100.00;99589.78;12170653;19;20010;-84
2022/12/04 05:18:31;;;;;;;18.25;7.05;;;;;;;3.83;100.00;99591.66;12196648;19;20003;-84
2022/12/04 05:22:34;;;;;;;14.93;7.22;;;;;;;3.86;100.00;99588.50;12197901;19;20405;-85
2022/12/04 05:26:36;;;;;;;15.13;6.75;;;;;;;3.88;100.00;99591.88;12175768;19;20456;-84
2022/12/04 05:30:38;;;;;;;16.48;6.78;;;;;;;3.92;100.00;99594.19;12197595;19;20006;-84
2022/12/04 05:34:40;;;;;;;14.35;6.70;;;;;;;3.87;100.00;99603.00;12197165;19;20014;-84
2022/12/04 05:38:42;;;;;;;17.35;6.60;;;;;;;3.85;100.00;99605.09;12175648;19;20006;-84
2022/12/04 05:42:44;;;;;;;14.07;6.47;;;;;;;3.88;100.00;99604.66;12195156;19;20007;-83
2022/12/04 05:46:45;;;;;;;15.93;6.57;;;;;;;3.75;100.00;99607.38;12179177;19;20565;-83
2022/12/04 05:50:47;;;;;;;16.13;7.20;;;;;;;3.78;100.00;99599.66;12198115;19;20501;-83
2022/12/04 05:54:49;;;;;;;16.65;7.32;;;;;;;3.75;100.00;99604.66;12198118;19;20016;-83
2022/12/04 05:58:50;;;;;;;13.60;6.70;;;;;;;3.72;100.00;99600.50;12178547;19;20075;-83
2022/12/04 06:02:52;;;;;;;16.63;7.47;;;;;;;3.74;100.00;99612.00;12197812;19;20002;-82
2022/12/04 06:06:54;;;;;;;14.30;6.10;;;;;;;3.82;100.00;99613.69;12196668;19;20006;-85
2022/12/04 06:10:55;;;;;;;16.73;7.07;;;;;;;3.77;100.00;99614.31;12175130;19;20010;-86
2022/12/04 06:14:57;;;;;;;14.02;6.38;;;;;;;3.79;100.00;99611.41;12194583;19;20007;-85
2022/12/04 06:19:03;;;;;;;18.02;6.88;;;;;;;3.85;100.00;99610.53;12196822;19;20011;-85
2022/12/04 06:23:05;;;;;;;15.85;7.07;;;;;;;3.85;100.00;99619.56;12175900;19;20043;-85
2022/12/04 06:27:06;;;;;;;14.93;6.47;;;;;;;3.82;100.00;99621.88;12194209;19;20022;-85
2022/12/04 06:31:28;;;;;;;16.05;6.25;;;;;;;3.85;100.00;99616.84;12204087;19;20007;-85
2022/12/04 06:35:30;;;;;;;18.33;7.40;;;;;;;3.86;100.00;99607.59;12210594;19;20006;-84
2022/12/04 06:39:32;;;;;;;13.80;6.65;;;;;;;3.85;100.00;99610.53;12262954;19;20426;-84
2022/12/04 06:43:34;;;;;;;15.18;6.25;;;;;;;3.86;100.00;99612.22;12267864;19;20015;-84
2022/12/04 06:47:35;;;;;;;15.80;6.80;;;;;;;3.93;100.00;99617.69;12236702;19;20006;-85
2022/12/04 06:51:39;;;;;;;17.05;6.38;;;;;;;3.98;100.00;99605.06;12216672;19;20013;-86
2022/12/04 06:55:47;;;;;;;17.52;6.95;;;;;;;4.05;100.00;99619.53;12216052;19;20354;-85
2022/12/04 06:59:49;;;;;;;14.30;6.03;;;;;;;4.03;100.00;99605.28;12186513;19;20012;-85
2022/12/04 07:03:51;;;;;;;14.23;6.38;;;;;;;3.93;100.00;99604.88;12206300;19;20015;-83
2022/12/04 07:07:54;;;;;;;16.38;6.78;;;;;;;3.89;100.00;99593.53;12185257;19;20034;-83
2022/12/04 07:11:55;;;;;;;14.55;7.13;;;;;;;3.89;100.00;99596.25;12206131;19;20546;-84
2022/12/04 07:16:02;;;;;;;14.70;6.80;;;;;;;3.99;100.00;99595.03;12207842;19;20567;-84
2022/12/04 07:20:05;;;;;;;18.15;7.63;;;;;;;4.03;100.00;99599.81;12183181;19;19996;-83
2022/12/04 07:24:07;;;;;;;13.70;6.00;;;;;;;4.04;100.00;99598.75;12204336;19;20123;-84
2022/12/04 07:28:08;;;;;;;13.55;6.50;;;;;;;4.13;100.00;99598.53;12204865;19;20479;-83
2022/12/04 07:32:10;;;;;;;15.73;6.95;;;;;;;4.10;100.00;99583.44;12182814;19;20032;-84
2022/12/04 07:36:14;;;;;;;14.90;7.05;;;;;;;4.09;100.00;99593.50;12203870;19;20002;-84
2022/12/04 07:40:16;;;;;;;12.82;6.05;;;;;;;4.09;100.00;99593.50;12203873;19;21262;-84
2022/12/04 07:44:17;;;;;;;18.20;7.43;;;;;;;4.05;100.00;99599.63;12184232;19;20514;-84
2022/12/04 07:48:19;;;;;;;15.82;7.07;;;;;;;4.00;100.00;99607.59;12205094;19;20015;-84
2022/12/04 07:52:21;;;;;;;21.85;9.57;;;;;;;4.05;100.00;99608.63;12207009;19;19999;-85
2022/12/04 07:56:22;;;;;;;16.15;8.77;;;;;;;4.07;100.00;99619.31;12182837;19;20536;-83
2022/12/04 08:00:24;;;;;;;20.52;10.30;;;;;;;4.02;100.00;99624.59;12205703;19;20489;-84
2022/12/04 08:04:26;;;;;;;19.33;9.35;;;;;;;3.98;100.00;99623.31;12208409;19;20003;-84
2022/12/04 08:08:28;;;;;;;25.08;12.20;;;;;;;3.86;100.00;99623.94;12192532;19;20007;-84
2022/12/04 08:12:32;;;;;;;18.55;9.10;;;;;;;3.78;100.00;99629.63;12202639;19;20010;-83
2022/12/04 08:16:33;;;;;;;18.27;8.02;;;;;;;3.73;100.00;99625.88;12205050;19;19999;-84
2022/12/04 08:20:35;;;;;;;21.42;9.13;;;;;;;3.71;100.00;99611.59;12180715;19;20074;-85
2022/12/04 08:24:37;;;;;;;20.83;9.15;;;;;;;3.55;100.00;99621.03;12203215;19;20031;-84
2022/12/04 08:28:39;;;;;;;23.58;9.63;;;;;;;3.53;100.00;99618.50;12201416;19;20028;-84
2022/12/04 08:32:41;;;;;;;22.50;9.77;;;;;;;3.64;100.00;99603.44;12178126;19;20032;-84
2022/12/04 08:36:42;;;;;;;25.70;12.35;;;;;;;3.65;100.00;99602.38;12202048;19;20413;-84
2022/12/04 08:40:44;;;;;;;25.83;10.43;;;;;;;3.65;100.00;99610.53;12198851;19;20011;-83
2022/12/04 08:44:46;;;;;;;21.10;8.85;;;;;;;3.69;100.00;99610.97;12175988;19;20002;-85
2022/12/04 08:48:47;;;;;;;20.13;9.00;;;;;;;3.67;100.00;99607.63;12199698;19;20006;-83
2022/12/04 08:52:49;;;;;;;22.23;10.15;;;;;;;3.67;100.00;99596.72;12175880;19;20376;-84
2022/12/04 08:56:51;;;;;;;21.65;9.05;;;;;;;3.64;100.00;99601.53;12201637;19;20051;-85
2022/12/04 09:00:52;;;;;;;21.88;11.20;;;;;;;3.60;100.00;99603.03;12205376;19;20006;-84
2022/12/04 09:04:54;;;;;;;23.50;10.27;;;;;;;3.64;100.00;99608.88;12178929;19;20034;-86
2022/12/04 09:08:56;;;;;;;19.27;8.83;;;;;;;3.71;100.00;99608.88;12201116;19;20009;-85
2022/12/04 09:12:58;;;;;;;24.05;9.57;;;;;;;3.84;100.00;99614.34;12197532;19;20006;-84
2022/12/04 09:16:59;;;;;;;24.83;9.82;;;;;;;3.86;100.00;99617.66;12175589;19;20007;-83
2022/12/04 09:21:04;;;;;;;23.85;9.85;;;;;;;3.91;100.00;99609.69;12194341;19;20090;-83
2022/12/04 09:25:06;;;;;;;24.35;10.70;;;;;;;3.96;100.00;99604.47;12190708;19;20007;-84
2022/12/04 09:29:10;;;;;;;24.83;11.43;;;;;;;3.98;100.00;99607.78;12172963;19;20755;-84
2022/12/04 09:33:11;;;;;;;22.90;9.23;;;;;;;4.09;100.00;99598.97;12190712;19;20036;-84
2022/12/04 09:37:14;;;;;;;22.75;10.05;;;;;;;4.13;100.00;99595.81;12201426;19;20030;-84
2022/12/04 09:41:34;;;;;;;22.15;9.55;;;;;;;4.19;100.00;99597.69;12178873;19;20642;-83
2022/12/04 09:45:46;;;;;;;24.00;9.52;;;;;;;4.23;100.00;99596.22;12204593;19;20007;-84
2022/12/04 09:49:57;;;;;;;20.65;9.35;;;;;;;4.22;100.00;99605.44;12169870;19;20069;-84
2022/12/04 09:54:17;;;;;;;21.65;9.45;;;;;;;4.25;100.00;99605.88;12197621;19;20007;-85
2022/12/04 09:58:26;;;;;;;21.40;9.65;;;;;;;4.31;100.00;99609.59;12198788;19;20555;-84
2022/12/04 10:02:38;;;;;;;20.90;10.43;;;;;;;4.33;100.00;99600.16;12177760;19;20006;-84
2022/12/04 10:06:45;;;;;;;23.10;8.90;;;;;;;4.31;100.00;99594.09;12202112;19;20011;-86
2022/12/04 10:10:58;;;;;;;26.13;9.95;;;;;;;4.24;100.00;99595.16;12181229;19;19999;-84
2022/12/04 10:15:21;;;;;;;25.70;9.93;;;;;;;4.22;100.00;99589.06;12202299;19;20006;-84
2022/12/04 10:19:47;;;;;;;20.95;9.25;;;;;;;4.12;100.00;99578.63;12195681;19;20461;-85
2022/12/04 10:24:17;;;;;;;23.73;9.77;;;;;;;4.12;100.00;99570.44;12175585;19;20488;-84
2022/12/04 10:28:33;;;;;;;21.65;9.38;;;;;;;4.24;100.00;99566.00;12195608;19;20066;-84
2022/12/04 10:32:36;;;;;;;21.15;9.18;;;;;;;4.30;100.00;99569.75;12174164;19;20027;-84
2022/12/04 10:36:38;;;;;;;;;;;;;;;4.29;100.00;99573.56;12197611;19;20018;-84
2022/12/04 10:40:49;;;;;;;21.77;8.87;;;;;;;4.27;100.00;99567.47;12193971;19;19925;-84
2022/12/04 10:44:51;;;;;;;21.05;8.82;;;;;;;4.24;100.00;99551.53;12178930;19;20116;-84
2022/12/04 10:49:13;;;;;;;21.75;9.65;;;;;;;4.22;100.00;99551.72;12187512;19;19999;-83
2022/12/04 10:53:15;;;;;;;26.48;10.27;;;;;;;4.27;100.00;99542.91;12146147;19;20464;-84
2022/12/04 10:57:17;;;;;;;24.17;10.93;;;;;;;4.25;100.00;99545.88;12188982;19;20003;-85
2022/12/04 11:01:20;;;;;;;28.85;10.35;;;;;;;4.28;100.00;99539.13;12187990;19;20062;-83
2022/12/04 11:05:30;;;;;;;25.70;10.27;;;;;;;4.30;100.00;99532.41;12172738;19;20019;-83
2022/12/04 11:09:32;;;;;;;24.63;9.65;;;;;;;4.27;100.00;99530.09;12191037;19;20010;-83
2022/12/04 11:13:35;;;;;;;24.25;9.98;;;;;;;4.28;100.00;99517.31;12191557;19;20066;-83
2022/12/04 11:17:36;;;;;;;25.70;10.80;;;;;;;4.29;100.00;99513.53;12178575;19;20002;-83
2022/12/04 11:21:38;;;;;;;28.92;10.90;;;;;;;4.18;100.00;99501.41;12204781;19;20082;-84
2022/12/04 11:25:45;;;;;;;30.15;12.00;;;;;;;4.18;100.00;99501.41;12209786;19;20003;-83
2022/12/04 11:29:48;;;;;;;26.58;11.77;;;;;;;4.20;100.00;99510.22;12187474;19;20460;-83
2022/12/04 11:34:07;;;;;;;30.20;10.30;;;;;;;4.16;100.00;99516.31;12210219;19;20002;-83
2022/12/04 11:38:14;;;;;;;25.40;10.38;;;;;;;4.16;100.00;99524.47;12203229;19;20027;-83
2022/12/04 11:42:22;;;;;;;28.85;11.32;;;;;;;4.10;100.00;99523.44;12240165;19;20047;-81
2022/12/04 11:46:26;;;;;;;24.92;9.43;;;;;;;4.20;100.00;99521.13;12245681;19;20003;-84
2022/12/04 11:51:01;;;;;;;26.77;10.27;;;;;;;4.30;100.00;99515.19;12188985;19;20082;-84
2022/12/04 11:55:15;;;;;;;30.92;10.93;;;;;;;4.28;100.00;99507.25;12208053;19;20010;-83
2022/12/04 11:59:39;;;;;;;24.35;9.68;;;;;;;4.36;100.00;99513.50;12179567;19;20006;-83
2022/12/04 12:04:03;;;;;;;27.33;10.88;;;;;;;4.41;100.00;99528.16;12204990;19;20006;-84
2022/12/04 12:08:23;;;;;;;22.17;10.10;;;;;;;4.47;100.00;99531.94;12183047;19;20015;-83
2022/12/04 12:12:59;;;;;;;24.08;10.65;;;;;;;4.53;100.00;99528.31;12205213;19;20039;-83
2022/12/04 12:17:14;;;;;;;27.98;10.63;;;;;;;4.58;100.00;99533.97;12183764;19;20011;-82
2022/12/04 12:21:23;;;;;;;24.40;10.77;;;;;;;4.61;100.00;99539.00;12201835;19;20003;-82
2022/12/04 12:25:36;;;;;;;27.92;12.27;;;;;;;4.66;100.00;99530.97;12203789;19;20042;-81
2022/12/04 12:30:01;;;;;;;27.45;11.45;;;;;;;4.68;100.00;99528.03;12180127;19;20131;-82
2022/12/04 12:34:09;;;;;;;25.55;10.32;;;;;;;4.73;100.00;99520.00;12201344;19;20031;-81
2022/12/04 12:38:18;;;;;;;21.83;10.75;;;;;;;4.66;100.00;99530.13;12178843;19;20006;-82
2022/12/04 12:42:27;;;;;;;28.40;10.68;;;;;;;4.66;100.00;99513.75;12201431;19;20006;-83
2022/12/04 12:46:38;;;;;;;22.88;10.65;;;;;;;4.63;100.00;99515.03;12206588;19;20274;-83
2022/12/04 12:50:52;;;;;;;23.80;9.73;;;;;;;4.64;100.00;99516.72;12192731;19;20002;-83
2022/12/04 12:55:29;;;;;;;22.27;9.88;;;;;;;4.57;100.00;99519.47;12226029;19;20011;-81
2022/12/04 12:59:31;;;;;;;25.90;9.63;;;;;;;4.56;100.00;99531.44;12244787;19;19995;-81
2022/12/04 13:03:44;;;;;;;20.57;10.20;;;;;;;4.52;100.00;99516.59;12250697;19;20039;-83
2022/12/04 13:07:57;;;;;;;21.88;9.95;;;;;;;4.55;100.00;99512.56;12208996;19;20859;-82
2022/12/04 13:12:07;;;;;;;24.38;10.90;;;;;;;4.60;100.00;99499.09;12210969;19;20039;-83
2022/12/04 13:16:13;;;;;;;22.55;10.48;;;;;;;4.55;100.00;99497.03;12210361;19;20476;-83
2022/12/04 13:20:30;;;;;;;23.52;10.40;;;;;;;4.53;100.00;99490.13;12191548;19;20370;-82
2022/12/04 13:24:50;;;;;;;26.63;11.07;;;;;;;4.48;100.00;99479.84;12212275;19;20007;-84
2022/12/04 13:29:36;;;;;;;23.27;10.05;;;;;;;4.48;100.00;99465.38;12193737;19;20460;-84
2022/12/04 13:34:07;;;;;;;24.15;9.75;;;;;;;4.62;100.00;99471.59;12197836;19;20091;-83
2022/12/04 13:38:44;;;;;;;22.75;8.75;;;;;;;4.60;100.00;99471.81;12181042;19;20638;-83
2022/12/04 13:42:48;;;;;;;26.92;9.98;;;;;;;4.60;100.00;99466.34;12198815;19;20010;-82
2022/12/04 13:47:01;;;;;;;22.73;9.60;;;;;;;4.46;100.00;99468.34;12184178;19;20023;-82
2022/12/04 13:51:04;;;;;;;;;;;;;;;4.41;100.00;99468.16;12207625;19;20038;-83
2022/12/04 13:55:26;;;;;;;19.42;8.65;;;;;;;4.51;100.00;99468.50;12207841;19;19944;-84
2022/12/04 13:59:31;;;;;;;26.97;9.53;;;;;;;4.54;100.00;99468.06;12184828;19;20006;-83
2022/12/04 14:03:44;;;;;;;27.17;11.40;;;;;;;4.60;100.00;99470.97;12208650;19;20006;-83
2022/12/04 14:08:17;;;;;;;29.95;11.98;;;;;;;4.65;100.00;99462.97;12202478;19;20354;-83
2022/12/04 14:12:28;;;;;;;57.78;22.23;;;;;;;4.71;100.00;99467.56;12209429;19;20011;-82
2022/12/04 14:16:39;;;;;;;34.33;13.85;;;;;;;4.73;100.00;99465.41;12206182;19;20009;-84
2022/12/04 14:20:45;;;;;;;69.22;22.48;;;;;;;4.74;100.00;99461.66;12184449;19;20071;-83
2022/12/04 14:24:48;;;;;;;68.78;26.60;;;;;;;4.67;100.00;99460.84;12200610;19;20675;-81
2022/12/04 14:28:51;;;;;;;111.63;39.60;;;;;;;4.71;100.00;99462.09;12177784;19;20010;-83
2022/12/04 14:32:58;;;;;;;58.85;24.92;;;;;;;4.71;100.00;99462.94;12199391;19;20013;-83
2022/12/04 14:37:03;;;;;;;35.88;15.10;;;;;;;4.66;100.00;99470.94;12187757;19;20013;-80
2022/12/04 14:41:05;;;;;;;24.02;11.38;;;;;;;4.60;100.00;99468.25;12174264;19;20018;-82
2022/12/04 14:45:42;;;;;;;31.85;13.45;;;;;;;4.49;100.00;99477.97;12202286;19;20025;-82
2022/12/04 14:50:12;;;;;;;35.45;14.85;;;;;;;4.43;100.00;99493.34;12200882;19;20006;-83
2022/12/04 14:54:29;;;;;;;32.88;14.00;;;;;;;4.36;100.00;99503.44;12187591;19;20011;-83
2022/12/04 14:58:35;;;;;;;37.05;15.27;;;;;;;4.30;100.00;99509.75;12218399;19;20002;-83
2022/12/04 15:02:43;;;;;;;36.08;15.77;;;;;;;4.25;100.00;99504.09;12193328;19;20035;-82
2022/12/04 15:06:47;;;;;;;27.50;12.35;;;;;;;4.28;100.00;99503.66;12222001;19;20357;-83
2022/12/04 15:15:16;;;;;;;37.60;16.00;;;;;;;4.10;100.00;99507.94;12216567;19;20017;-83
2022/12/04 15:19:19;;;;;;;44.90;18.10;;;;;;;4.14;100.00;99504.78;12212154;19;20011;-83
2022/12/04 15:23:28;;;;;;;27.35;13.52;;;;;;;4.07;100.00;99499.34;12196632;19;20009;-82
2022/12/04 15:27:29;;;;;;;34.55;15.20;;;;;;;4.08;100.00;99511.94;12210658;19;20003;-82
2022/12/04 15:31:39;;;;;;;26.23;11.20;;;;;;;4.09;100.00;99508.97;12208384;19;20014;-81
2022/12/04 15:35:46;;;;;;;22.33;11.07;;;;;;;4.17;100.00;99507.09;12184889;19;20005;-82
2022/12/04 15:39:49;;;;;;;21.92;9.90;;;;;;;4.23;100.00;99515.25;12206404;19;20014;-84
2022/12/04 15:43:53;;;;;;;24.17;10.77;;;;;;;4.26;100.00;99509.34;12184015;19;20043;-82
2022/12/04 15:47:56;;;;;;;31.33;11.13;;;;;;;4.24;100.00;99502.44;12201820;19;20485;-83
2022/12/04 15:52:04;;;;;;;34.05;11.30;;;;;;;4.19;100.00;99504.97;12203827;19;21287;-82
2022/12/04 15:56:08;;;;;;;25.08;11.27;;;;;;;4.17;100.00;99509.81;12195330;19;19999;-85
2022/12/04 16:00:28;;;;;;;24.67;10.70;;;;;;;4.13;100.00;99514.00;12220697;19;20497;-82
2022/12/04 16:04:34;;;;;;;32.40;12.40;;;;;;;4.10;100.00;99516.13;12201175;19;20003;-83
2022/12/04 16:08:39;;;;;;;40.13;17.67;;;;;;;4.19;100.00;99518.59;12181060;19;20014;-82
2022/12/04 16:12:54;;;;;;;43.40;18.20;;;;;;;4.20;100.00;99509.38;12200638;19;20024;-83
2022/12/04 16:16:59;;;;;;;35.80;14.18;;;;;;;4.18;100.00;99512.31;12180376;19;20007;-82
2022/12/04 16:21:14;;;;;;;30.75;15.63;;;;;;;4.14;100.00;99502.91;12198154;19;20492;-82
2022/12/04 16:25:16;;;;;;;29.33;13.27;;;;;;;4.17;100.00;99501.63;12191408;19;20508;-82
2022/12/04 16:29:18;;;;;;;28.17;12.95;;;;;;;4.19;100.00;99505.78;12169156;19;20078;-83
2022/12/04 16:33:20;;;;;;;26.90;12.63;;;;;;;4.25;100.00;99506.81;12196005;19;20010;-83
2022/12/04 16:37:22;;;;;;;27.63;12.85;;;;;;;4.23;100.00;99503.50;12192645;19;20013;-83
2022/12/04 16:41:23;;;;;;;27.57;14.07;;;;;;;4.22;100.00;99504.53;12197729;19;20501;-82
2022/12/04 16:45:30;;;;;;;27.63;12.57;;;;;;;4.26;100.00;99508.53;12231055;19;20002;-82
2022/12/04 16:49:31;;;;;;;29.40;12.60;;;;;;;4.29;100.00;99498.00;12240722;19;20047;-83
2022/12/04 16:53:33;;;;;;;29.17;11.50;;;;;;;4.30;100.00;99501.56;12184169;19;20524;-83
2022/12/04 16:57:35;;;;;;;28.92;12.05;;;;;;;4.29;100.00;99497.19;12195485;19;20003;-83
2022/12/04 17:01:44;;;;;;;26.83;11.27;;;;;;;4.22;100.00;99501.81;12190627;19;19999;-82
2022/12/04 17:05:46;;;;;;;33.55;15.82;;;;;;;4.10;100.00;99496.19;12170129;19;20028;-81
2022/12/04 17:09:47;;;;;;;29.30;14.35;;;;;;;4.06;100.00;99493.06;12185714;19;20006;-82
2022/12/04 17:13:49;;;;;;;27.25;13.38;;;;;;;3.99;100.00;99484.06;12178524;19;20044;-83
2022/12/04 17:17:51;;;;;;;33.20;13.40;;;;;;;3.91;100.00;99473.41;12164715;19;20015;-82
2022/12/04 17:21:54;;;;;;;33.47;14.30;;;;;;;3.95;100.00;99471.91;12180647;19;20082;-82
2022/12/04 17:26:00;;;;;;;29.35;13.80;;;;;;;4.05;100.00;99472.31;12185157;19;21224;-82
2022/12/04 17:30:03;;;;;;;33.25;13.30;;;;;;;4.07;100.00;99464.72;12136762;19;20450;-82
2022/12/04 17:34:07;;;;;;;33.13;14.32;;;;;;;4.10;100.00;99467.06;12169082;19;19999;-82
2022/12/04 17:38:09;;;;;;;32.33;14.27;;;;;;;4.13;100.00;99454.00;12173683;19;20006;-82
2022/12/04 17:42:11;;;;;;;34.05;13.52;;;;;;;4.07;100.00;99445.63;12157682;19;20082;-83
2022/12/04 17:46:17;;;;;;;30.55;13.07;;;;;;;4.06;100.00;99443.97;12181141;19;20002;-82
2022/12/04 17:50:19;;;;;;;26.92;13.00;;;;;;;4.05;100.00;99436.88;12165794;19;20014;-82
2022/12/04 17:54:21;;;;;;;36.20;15.35;;;;;;;3.98;100.00;99436.03;12169632;19;20006;-82
2022/12/04 17:58:23;;;;;;;31.23;13.93;;;;;;;3.95;100.00;99436.47;12176640;19;20006;-83
2022/12/04 18:02:24;;;;;;;37.03;15.65;;;;;;;3.93;100.00;99465.84;12155267;19;21388;-83
2022/12/04 18:06:29;;;;;;;32.35;13.63;;;;;;;3.99;100.00;99486.81;12177455;19;21949;-82
2022/12/04 18:10:33;;;;;;;31.23;12.95;;;;;;;4.01;100.00;99487.41;12183685;19;20015;-83
2022/12/04 18:14:35;;;;;;;29.48;12.93;;;;;;;4.07;100.00;99499.34;12168036;19;20014;-82
2022/12/04 18:18:38;;;;;;;28.97;12.80;;;;;;;4.16;100.00;99505.41;12184999;19;20007;-83
2022/12/04 18:22:39;;;;;;;35.50;13.70;;;;;;;4.18;100.00;99497.84;12180866;19;20639;-83
2022/12/04 18:26:46;;;;;;;32.10;13.95;;;;;;;4.19;100.00;99494.88;12164040;19;20248;-83
2022/12/04 18:30:48;;;;;;;33.95;14.20;;;;;;;4.12;100.00;99485.91;12197285;19;20007;-84
2022/12/04 18:34:50;;;;;;;34.15;14.05;;;;;;;4.11;100.00;99487.81;12193674;19;20010;-84
2022/12/04 18:38:57;;;;;;;37.45;14.18;;;;;;;4.10;100.00;99483.41;12179685;19;20011;-83
2022/12/04 18:42:59;;;;;;;29.55;13.15;;;;;;;4.09;100.00;99495.34;12198460;19;20015;-83
2022/12/04 18:47:02;;;;;;;27.30;12.32;;;;;;;4.12;100.00;99483.19;12175517;19;20015;-81
2022/12/04 18:51:25;;;;;;;30.98;13.48;;;;;;;4.07;100.00;99486.53;12194117;19;20762;-83
2022/12/04 18:55:27;;;;;;;58.00;20.98;;;;;;;4.02;100.00;99483.66;12193574;19;20003;-83
2022/12/04 18:59:29;;;;;;;47.67;17.25;;;;;;;3.98;100.00;99479.66;12169543;19;20006;-81
2022/12/04 19:03:31;;;;;;;35.92;14.50;;;;;;;3.99;100.00;99492.25;12185399;19;20776;-82